sensor_id;sensor_type;location;lat;lon;timestamp;temperature;humidity
15765;DHT22;7983;50.744;7.086;2023-07-29T00:00:40;21.10;99.90
15765;DHT22;7983;50.744;7.086;2023-07-29T00:03:06;21.10;99.90
15765;DHT22;7983;50.744;7.086;2023-07-29T00:05:34;21.10;99.90
15765;DHT22;7983;50.744;7.086;2023-07-29T00:07:59;21.10;99.90
15765;DHT22;7983;50.744;7.086;2023-07-29T00:10:30;21.10;99.90
15765;DHT22;7983;50.744;7.086;2023-07-29T00:12:56;21.10;99.90
15765;DHT22;7983;50.744;7.086;2023-07-29T00:15:22;21.20;99.90
15765;DHT22;7983;50.744;7.086;2023-07-29T00:17:47;21.20;99.90
15765;DHT22;7983;50.744;7.086;2023-07-29T00:20:13;21.20;99.90
15765;DHT22;7983;50.744;7.086;2023-07-29T00:22:41;21.20;99.90
15765;DHT22;7983;50.744;7.086;2023-07-29T00:25:07;21.20;99.90
15765;DHT22;7983;50.744;7.086;2023-07-29T00:27:33;21.20;99.90
15765;DHT22;7983;50.744;7.086;2023-07-29T00:29:58;21.30;99.90
15765;DHT22;7983;50.744;7.086;2023-07-29T00:32:29;21.30;99.90
15765;DHT22;7983;50.744;7.086;2023-07-29T00:34:56;21.30;99.90
15765;DHT22;7983;50.744;7.086;2023-07-29T00:37:29;21.30;99.90
15765;DHT22;7983;50.744;7.086;2023-07-29T00:39:55;21.30;99.90
15765;DHT22;7983;50.744;7.086;2023-07-29T00:42:23;21.30;99.90
15765;DHT22;7983;50.744;7.086;2023-07-29T00:44:52;21.30;99.90
15765;DHT22;7983;50.744;7.086;2023-07-29T00:47:18;21.30;99.90
15765;DHT22;7983;50.744;7.086;2023-07-29T00:49:44;21.30;99.90
15765;DHT22;7983;50.744;7.086;2023-07-29T00:52:11;21.30;99.90
15765;DHT22;7983;50.744;7.086;2023-07-29T00:54:39;21.30;99.90
15765;DHT22;7983;50.744;7.086;2023-07-29T00:57:11;21.30;99.90
15765;DHT22;7983;50.744;7.086;2023-07-29T00:59:42;21.30;99.90
15765;DHT22;7983;50.744;7.086;2023-07-29T01:02:08;21.30;99.90
15765;DHT22;7983;50.744;7.086;2023-07-29T01:04:34;21.30;99.90
15765;DHT22;7983;50.744;7.086;2023-07-29T01:07:12;21.30;99.90
15765;DHT22;7983;50.744;7.086;2023-07-29T01:15:14;21.30;99.90
15765;DHT22;7983;50.744;7.086;2023-07-29T01:18:05;21.30;99.90
15765;DHT22;7983;50.744;7.086;2023-07-29T01:20:34;21.30;99.90
15765;DHT22;7983;50.744;7.086;2023-07-29T01:23:04;21.20;99.90
15765;DHT22;7983;50.744;7.086;2023-07-29T01:25:30;21.20;99.90
15765;DHT22;7983;50.744;7.086;2023-07-29T01:27:58;21.30;99.90
15765;DHT22;7983;50.744;7.086;2023-07-29T01:30:30;21.30;99.90
15765;DHT22;7983;50.744;7.086;2023-07-29T01:32:59;21.30;99.90
15765;DHT22;7983;50.744;7.086;2023-07-29T01:35:36;21.30;99.90
15765;DHT22;7983;50.744;7.086;2023-07-29T01:40:58;21.30;99.90
15765;DHT22;7983;50.744;7.086;2023-07-29T01:43:30;21.30;99.90
15765;DHT22;7983;50.744;7.086;2023-07-29T01:45:56;21.30;99.90
15765;DHT22;7983;50.744;7.086;2023-07-29T01:48:22;21.30;99.90
15765;DHT22;7983;50.744;7.086;2023-07-29T01:50:50;21.30;99.90
15765;DHT22;7983;50.744;7.086;2023-07-29T01:53:16;21.30;99.90
15765;DHT22;7983;50.744;7.086;2023-07-29T01:55:42;21.30;99.90
15765;DHT22;7983;50.744;7.086;2023-07-29T01:58:10;21.30;99.90
15765;DHT22;7983;50.744;7.086;2023-07-29T02:00:35;21.30;99.90
15765;DHT22;7983;50.744;7.086;2023-07-29T02:03:01;21.30;99.90
15765;DHT22;7983;50.744;7.086;2023-07-29T02:05:29;21.30;99.90
15765;DHT22;7983;50.744;7.086;2023-07-29T02:07:55;21.30;99.90
15765;DHT22;7983;50.744;7.086;2023-07-29T02:10:20;21.30;99.90
15765;DHT22;7983;50.744;7.086;2023-07-29T02:12:46;21.20;99.90
15765;DHT22;7983;50.744;7.086;2023-07-29T02:15:12;21.20;99.90
15765;DHT22;7983;50.744;7.086;2023-07-29T02:17:44;21.20;99.90
15765;DHT22;7983;50.744;7.086;2023-07-29T02:20:10;21.20;99.90
15765;DHT22;7983;50.744;7.086;2023-07-29T02:22:36;21.20;99.90
15765;DHT22;7983;50.744;7.086;2023-07-29T02:25:02;21.20;99.90
15765;DHT22;7983;50.744;7.086;2023-07-29T02:27:28;21.20;99.90
15765;DHT22;7983;50.744;7.086;2023-07-29T02:29:54;21.30;99.90
15765;DHT22;7983;50.744;7.086;2023-07-29T02:32:22;21.30;99.90
15765;DHT22;7983;50.744;7.086;2023-07-29T02:34:48;21.30;99.90
15765;DHT22;7983;50.744;7.086;2023-07-29T02:37:14;21.30;99.90
15765;DHT22;7983;50.744;7.086;2023-07-29T02:39:40;21.30;99.90
15765;DHT22;7983;50.744;7.086;2023-07-29T02:42:05;21.30;99.90
15765;DHT22;7983;50.744;7.086;2023-07-29T02:44:31;21.30;99.90
15765;DHT22;7983;50.744;7.086;2023-07-29T02:46:57;21.30;99.90
15765;DHT22;7983;50.744;7.086;2023-07-29T02:49:23;21.30;99.90
15765;DHT22;7983;50.744;7.086;2023-07-29T02:51:49;21.40;99.90
15765;DHT22;7983;50.744;7.086;2023-07-29T02:54:16;21.40;99.90
15765;DHT22;7983;50.744;7.086;2023-07-29T02:56:45;21.40;99.90
15765;DHT22;7983;50.744;7.086;2023-07-29T02:59:12;21.40;99.90
15765;DHT22;7983;50.744;7.086;2023-07-29T03:01:38;21.40;99.90
15765;DHT22;7983;50.744;7.086;2023-07-29T03:04:03;21.40;99.90
15765;DHT22;7983;50.744;7.086;2023-07-29T03:06:29;21.40;99.90
15765;DHT22;7983;50.744;7.086;2023-07-29T03:08:55;21.30;99.90
15765;DHT22;7983;50.744;7.086;2023-07-29T03:11:23;21.30;99.90
15765;DHT22;7983;50.744;7.086;2023-07-29T03:13:49;21.20;99.90
15765;DHT22;7983;50.744;7.086;2023-07-29T03:16:17;21.20;99.90
15765;DHT22;7983;50.744;7.086;2023-07-29T03:18:44;21.10;99.90
15765;DHT22;7983;50.744;7.086;2023-07-29T03:21:13;21.10;99.90
15765;DHT22;7983;50.744;7.086;2023-07-29T03:23:38;21.00;99.90
15765;DHT22;7983;50.744;7.086;2023-07-29T03:26:06;20.90;99.90
15765;DHT22;7983;50.744;7.086;2023-07-29T03:28:42;20.80;99.90
15765;DHT22;7983;50.744;7.086;2023-07-29T03:31:10;20.70;99.90
15765;DHT22;7983;50.744;7.086;2023-07-29T03:33:39;20.70;99.90
15765;DHT22;7983;50.744;7.086;2023-07-29T03:36:04;20.60;99.90
15765;DHT22;7983;50.744;7.086;2023-07-29T03:38:32;20.60;99.90
15765;DHT22;7983;50.744;7.086;2023-07-29T03:41:02;20.50;99.90
15765;DHT22;7983;50.744;7.086;2023-07-29T03:43:30;20.50;99.90
15765;DHT22;7983;50.744;7.086;2023-07-29T03:45:56;20.50;99.90
15765;DHT22;7983;50.744;7.086;2023-07-29T03:48:24;20.40;99.90
15765;DHT22;7983;50.744;7.086;2023-07-29T03:50:50;20.40;99.90
15765;DHT22;7983;50.744;7.086;2023-07-29T03:53:15;20.30;99.90
15765;DHT22;7983;50.744;7.086;2023-07-29T03:55:42;20.30;99.90
15765;DHT22;7983;50.744;7.086;2023-07-29T03:58:08;20.30;99.90
15765;DHT22;7983;50.744;7.086;2023-07-29T04:00:36;20.20;99.90
15765;DHT22;7983;50.744;7.086;2023-07-29T04:03:04;20.20;99.90
15765;DHT22;7983;50.744;7.086;2023-07-29T04:05:29;20.20;99.90
15765;DHT22;7983;50.744;7.086;2023-07-29T04:07:55;20.20;99.90
15765;DHT22;7983;50.744;7.086;2023-07-29T04:10:20;20.20;99.90
15765;DHT22;7983;50.744;7.086;2023-07-29T04:12:46;20.20;99.90
15765;DHT22;7983;50.744;7.086;2023-07-29T04:15:14;20.20;99.90
15765;DHT22;7983;50.744;7.086;2023-07-29T04:17:42;20.20;99.90
15765;DHT22;7983;50.744;7.086;2023-07-29T04:20:08;20.20;99.90
15765;DHT22;7983;50.744;7.086;2023-07-29T04:22:36;20.20;99.90
15765;DHT22;7983;50.744;7.086;2023-07-29T04:25:02;20.20;99.90
15765;DHT22;7983;50.744;7.086;2023-07-29T04:27:30;20.20;99.90
15765;DHT22;7983;50.744;7.086;2023-07-29T04:29:55;20.20;99.90
15765;DHT22;7983;50.744;7.086;2023-07-29T04:32:21;20.20;99.90
15765;DHT22;7983;50.744;7.086;2023-07-29T04:34:48;20.20;99.90
15765;DHT22;7983;50.744;7.086;2023-07-29T04:37:14;20.20;99.90
15765;DHT22;7983;50.744;7.086;2023-07-29T04:39:42;20.20;99.90
15765;DHT22;7983;50.744;7.086;2023-07-29T04:42:07;20.20;99.90
15765;DHT22;7983;50.744;7.086;2023-07-29T04:44:35;20.20;99.90
15765;DHT22;7983;50.744;7.086;2023-07-29T04:47:01;20.30;99.90
15765;DHT22;7983;50.744;7.086;2023-07-29T04:49:26;20.30;99.90
15765;DHT22;7983;50.744;7.086;2023-07-29T04:51:52;20.30;99.90
15765;DHT22;7983;50.744;7.086;2023-07-29T04:54:17;20.30;99.90
15765;DHT22;7983;50.744;7.086;2023-07-29T04:56:46;20.30;99.90
15765;DHT22;7983;50.744;7.086;2023-07-29T04:59:14;20.30;99.90
15765;DHT22;7983;50.744;7.086;2023-07-29T05:01:39;20.30;99.90
15765;DHT22;7983;50.744;7.086;2023-07-29T05:04:08;20.40;99.90
15765;DHT22;7983;50.744;7.086;2023-07-29T05:06:36;20.40;99.90
15765;DHT22;7983;50.744;7.086;2023-07-29T05:09:17;20.40;99.90
15765;DHT22;7983;50.744;7.086;2023-07-29T05:11:43;20.40;99.90
15765;DHT22;7983;50.744;7.086;2023-07-29T05:14:19;20.40;99.90
15765;DHT22;7983;50.744;7.086;2023-07-29T05:16:44;20.40;99.90
15765;DHT22;7983;50.744;7.086;2023-07-29T05:19:10;20.40;99.90
15765;DHT22;7983;50.744;7.086;2023-07-29T05:21:38;20.40;99.90
15765;DHT22;7983;50.744;7.086;2023-07-29T05:24:04;20.40;99.90
15765;DHT22;7983;50.744;7.086;2023-07-29T05:26:32;20.40;99.90
15765;DHT22;7983;50.744;7.086;2023-07-29T05:29:00;20.40;99.90
15765;DHT22;7983;50.744;7.086;2023-07-29T05:31:29;20.40;99.90
15765;DHT22;7983;50.744;7.086;2023-07-29T05:33:55;20.50;99.90
15765;DHT22;7983;50.744;7.086;2023-07-29T05:36:20;20.50;99.90
15765;DHT22;7983;50.744;7.086;2023-07-29T05:38:48;20.50;99.90
15765;DHT22;7983;50.744;7.086;2023-07-29T05:41:14;20.50;99.90
15765;DHT22;7983;50.744;7.086;2023-07-29T05:43:42;20.60;99.90
15765;DHT22;7983;50.744;7.086;2023-07-29T05:46:10;20.60;99.90
15765;DHT22;7983;50.744;7.086;2023-07-29T05:48:38;20.70;99.90
15765;DHT22;7983;50.744;7.086;2023-07-29T05:51:04;20.70;99.90
15765;DHT22;7983;50.744;7.086;2023-07-29T05:53:31;20.70;99.90
15765;DHT22;7983;50.744;7.086;2023-07-29T05:55:56;20.70;99.90
15765;DHT22;7983;50.744;7.086;2023-07-29T05:58:22;20.80;99.90
15765;DHT22;7983;50.744;7.086;2023-07-29T06:00:48;20.80;99.90
15765;DHT22;7983;50.744;7.086;2023-07-29T06:03:15;20.80;99.90
15765;DHT22;7983;50.744;7.086;2023-07-29T06:05:46;20.80;99.90
15765;DHT22;7983;50.744;7.086;2023-07-29T06:08:11;20.90;99.90
15765;DHT22;7983;50.744;7.086;2023-07-29T06:10:39;20.90;99.90
15765;DHT22;7983;50.744;7.086;2023-07-29T06:13:05;20.90;99.90
15765;DHT22;7983;50.744;7.086;2023-07-29T06:15:34;20.90;99.90
15765;DHT22;7983;50.744;7.086;2023-07-29T06:18:02;21.00;99.90
15765;DHT22;7983;50.744;7.086;2023-07-29T06:20:28;21.00;99.90
15765;DHT22;7983;50.744;7.086;2023-07-29T06:22:54;21.00;99.90
15765;DHT22;7983;50.744;7.086;2023-07-29T06:25:19;21.00;99.90
15765;DHT22;7983;50.744;7.086;2023-07-29T06:27:45;21.10;99.90
15765;DHT22;7983;50.744;7.086;2023-07-29T06:30:10;21.10;99.90
15765;DHT22;7983;50.744;7.086;2023-07-29T06:32:38;21.10;99.90
15765;DHT22;7983;50.744;7.086;2023-07-29T06:35:06;21.20;99.90
15765;DHT22;7983;50.744;7.086;2023-07-29T06:37:32;21.20;99.90
15765;DHT22;7983;50.744;7.086;2023-07-29T06:40:00;21.20;99.90
15765;DHT22;7983;50.744;7.086;2023-07-29T06:42:28;21.30;99.90
15765;DHT22;7983;50.744;7.086;2023-07-29T06:44:56;21.30;99.90
15765;DHT22;7983;50.744;7.086;2023-07-29T06:47:21;21.40;99.90
15765;DHT22;7983;50.744;7.086;2023-07-29T06:49:49;21.40;99.90
15765;DHT22;7983;50.744;7.086;2023-07-29T06:52:14;21.40;99.90
15765;DHT22;7983;50.744;7.086;2023-07-29T06:54:40;21.40;99.90
15765;DHT22;7983;50.744;7.086;2023-07-29T06:57:06;21.50;99.90
15765;DHT22;7983;50.744;7.086;2023-07-29T06:59:31;21.50;99.90
15765;DHT22;7983;50.744;7.086;2023-07-29T07:01:59;21.60;99.90
15765;DHT22;7983;50.744;7.086;2023-07-29T07:04:25;21.60;99.90
15765;DHT22;7983;50.744;7.086;2023-07-29T07:06:56;21.60;99.90
15765;DHT22;7983;50.744;7.086;2023-07-29T07:09:21;21.70;99.90
15765;DHT22;7983;50.744;7.086;2023-07-29T07:11:47;21.70;99.90
15765;DHT22;7983;50.744;7.086;2023-07-29T07:14:13;21.80;99.90
15765;DHT22;7983;50.744;7.086;2023-07-29T07:16:40;21.80;99.90
15765;DHT22;7983;50.744;7.086;2023-07-29T07:19:08;21.80;99.90
15765;DHT22;7983;50.744;7.086;2023-07-29T07:21:34;21.90;99.90
15765;DHT22;7983;50.744;7.086;2023-07-29T07:24:02;21.90;99.90
15765;DHT22;7983;50.744;7.086;2023-07-29T07:26:27;21.90;99.90
15765;DHT22;7983;50.744;7.086;2023-07-29T07:28:56;21.90;99.90
15765;DHT22;7983;50.744;7.086;2023-07-29T07:31:24;22.00;99.90
15765;DHT22;7983;50.744;7.086;2023-07-29T07:33:49;22.00;99.90
15765;DHT22;7983;50.744;7.086;2023-07-29T07:36:15;22.00;99.90
15765;DHT22;7983;50.744;7.086;2023-07-29T07:38:41;22.00;99.90
15765;DHT22;7983;50.744;7.086;2023-07-29T07:41:07;22.10;99.90
15765;DHT22;7983;50.744;7.086;2023-07-29T07:43:35;22.10;99.90
15765;DHT22;7983;50.744;7.086;2023-07-29T07:46:08;22.20;99.90
15765;DHT22;7983;50.744;7.086;2023-07-29T07:48:34;22.20;99.90
15765;DHT22;7983;50.744;7.086;2023-07-29T07:50:59;22.30;99.90
15765;DHT22;7983;50.744;7.086;2023-07-29T07:53:30;22.40;99.90
15765;DHT22;7983;50.744;7.086;2023-07-29T07:56:00;22.40;99.90
15765;DHT22;7983;50.744;7.086;2023-07-29T07:58:26;22.50;99.90
15765;DHT22;7983;50.744;7.086;2023-07-29T08:00:52;22.60;99.90
15765;DHT22;7983;50.744;7.086;2023-07-29T08:03:17;22.60;99.90
15765;DHT22;7983;50.744;7.086;2023-07-29T08:05:43;22.70;99.90
15765;DHT22;7983;50.744;7.086;2023-07-29T08:08:09;22.80;99.90
15765;DHT22;7983;50.744;7.086;2023-07-29T08:10:34;22.90;99.90
15765;DHT22;7983;50.744;7.086;2023-07-29T08:13:02;23.00;99.90
15765;DHT22;7983;50.744;7.086;2023-07-29T08:15:28;23.00;99.90
15765;DHT22;7983;50.744;7.086;2023-07-29T08:17:53;23.00;99.90
15765;DHT22;7983;50.744;7.086;2023-07-29T08:20:22;23.00;99.90
15765;DHT22;7983;50.744;7.086;2023-07-29T08:22:47;23.00;99.90
15765;DHT22;7983;50.744;7.086;2023-07-29T08:25:13;23.00;99.90
15765;DHT22;7983;50.744;7.086;2023-07-29T08:27:41;23.00;99.90
15765;DHT22;7983;50.744;7.086;2023-07-29T08:30:07;23.00;99.90
15765;DHT22;7983;50.744;7.086;2023-07-29T08:32:35;23.10;99.90
15765;DHT22;7983;50.744;7.086;2023-07-29T08:35:00;23.10;99.90
15765;DHT22;7983;50.744;7.086;2023-07-29T08:37:26;23.10;99.90
15765;DHT22;7983;50.744;7.086;2023-07-29T08:39:52;23.10;99.90
15765;DHT22;7983;50.744;7.086;2023-07-29T08:42:19;23.10;99.90
15765;DHT22;7983;50.744;7.086;2023-07-29T08:44:48;23.10;99.90
15765;DHT22;7983;50.744;7.086;2023-07-29T08:47:16;23.10;99.90
15765;DHT22;7983;50.744;7.086;2023-07-29T08:49:45;23.10;99.90
15765;DHT22;7983;50.744;7.086;2023-07-29T08:52:11;23.00;99.90
15765;DHT22;7983;50.744;7.086;2023-07-29T08:54:37;23.00;99.90
15765;DHT22;7983;50.744;7.086;2023-07-29T08:57:06;23.00;99.90
15765;DHT22;7983;50.744;7.086;2023-07-29T08:59:34;23.00;99.90
15765;DHT22;7983;50.744;7.086;2023-07-29T09:02:06;22.90;99.90
15765;DHT22;7983;50.744;7.086;2023-07-29T09:04:32;22.80;99.90
15765;DHT22;7983;50.744;7.086;2023-07-29T09:06:59;22.80;99.90
15765;DHT22;7983;50.744;7.086;2023-07-29T09:09:26;22.70;99.90
15765;DHT22;7983;50.744;7.086;2023-07-29T09:11:52;22.70;99.90
15765;DHT22;7983;50.744;7.086;2023-07-29T09:14:23;22.60;99.90
15765;DHT22;7983;50.744;7.086;2023-07-29T09:16:51;22.60;99.90
15765;DHT22;7983;50.744;7.086;2023-07-29T09:19:17;22.60;99.90
15765;DHT22;7983;50.744;7.086;2023-07-29T09:21:42;22.50;99.90
15765;DHT22;7983;50.744;7.086;2023-07-29T09:24:12;22.50;99.90
15765;DHT22;7983;50.744;7.086;2023-07-29T09:26:48;22.50;99.90
15765;DHT22;7983;50.744;7.086;2023-07-29T09:29:22;22.50;99.90
15765;DHT22;7983;50.744;7.086;2023-07-29T09:31:48;22.50;99.90
15765;DHT22;7983;50.744;7.086;2023-07-29T09:34:15;22.50;99.90
15765;DHT22;7983;50.744;7.086;2023-07-29T09:36:45;22.50;99.90
15765;DHT22;7983;50.744;7.086;2023-07-29T09:39:13;22.50;99.90
15765;DHT22;7983;50.744;7.086;2023-07-29T09:41:39;22.60;99.90
15765;DHT22;7983;50.744;7.086;2023-07-29T09:44:05;22.60;99.90
15765;DHT22;7983;50.744;7.086;2023-07-29T09:46:35;22.60;99.90
15765;DHT22;7983;50.744;7.086;2023-07-29T09:49:03;22.60;99.90
15765;DHT22;7983;50.744;7.086;2023-07-29T09:51:31;22.60;99.90
15765;DHT22;7983;50.744;7.086;2023-07-29T09:53:57;22.70;99.90
15765;DHT22;7983;50.744;7.086;2023-07-29T09:56:27;22.70;99.90
15765;DHT22;7983;50.744;7.086;2023-07-29T09:58:55;22.70;99.90
15765;DHT22;7983;50.744;7.086;2023-07-29T10:01:20;22.80;99.90
15765;DHT22;7983;50.744;7.086;2023-07-29T10:03:47;22.80;99.90
15765;DHT22;7983;50.744;7.086;2023-07-29T10:06:14;22.80;99.90
15765;DHT22;7983;50.744;7.086;2023-07-29T10:08:42;22.80;99.90
15765;DHT22;7983;50.744;7.086;2023-07-29T10:11:09;22.80;99.90
15765;DHT22;7983;50.744;7.086;2023-07-29T10:13:38;22.80;99.90
15765;DHT22;7983;50.744;7.086;2023-07-29T10:16:04;22.80;99.90
15765;DHT22;7983;50.744;7.086;2023-07-29T10:18:31;22.80;99.90
15765;DHT22;7983;50.744;7.086;2023-07-29T10:21:02;22.80;99.90
15765;DHT22;7983;50.744;7.086;2023-07-29T10:23:35;22.80;99.90
15765;DHT22;7983;50.744;7.086;2023-07-29T10:26:04;22.70;99.90
15765;DHT22;7983;50.744;7.086;2023-07-29T10:28:31;22.70;99.90
15765;DHT22;7983;50.744;7.086;2023-07-29T10:30:58;22.70;99.90
15765;DHT22;7983;50.744;7.086;2023-07-29T10:33:25;22.60;99.90
15765;DHT22;7983;50.744;7.086;2023-07-29T10:35:52;22.50;99.90
15765;DHT22;7983;50.744;7.086;2023-07-29T10:38:21;22.30;99.90
15765;DHT22;7983;50.744;7.086;2023-07-29T10:40:50;22.20;99.90
15765;DHT22;7983;50.744;7.086;2023-07-29T10:45:57;22.00;99.90
15765;DHT22;7983;50.744;7.086;2023-07-29T10:53:45;21.70;99.90
15765;DHT22;7983;50.744;7.086;2023-07-29T10:56:28;21.60;99.90
15765;DHT22;7983;50.744;7.086;2023-07-29T10:58:55;21.50;99.90
15765;DHT22;7983;50.744;7.086;2023-07-29T11:01:32;21.50;99.90
15765;DHT22;7983;50.744;7.086;2023-07-29T11:09:51;21.50;99.90
15765;DHT22;7983;50.744;7.086;2023-07-29T11:15:04;21.50;99.90
15765;DHT22;7983;50.744;7.086;2023-07-29T11:17:33;21.60;99.90
15765;DHT22;7983;50.744;7.086;2023-07-29T11:20:02;21.60;99.90
15765;DHT22;7983;50.744;7.086;2023-07-29T11:22:30;21.70;99.90
15765;DHT22;7983;50.744;7.086;2023-07-29T11:24:56;21.90;99.90
15765;DHT22;7983;50.744;7.086;2023-07-29T11:27:22;21.90;99.90
15765;DHT22;7983;50.744;7.086;2023-07-29T11:29:48;22.00;99.90
15765;DHT22;7983;50.744;7.086;2023-07-29T11:32:17;22.00;99.90
15765;DHT22;7983;50.744;7.086;2023-07-29T11:34:43;22.10;99.90
15765;DHT22;7983;50.744;7.086;2023-07-29T11:37:11;22.10;99.90
15765;DHT22;7983;50.744;7.086;2023-07-29T11:39:44;22.20;99.90
15765;DHT22;7983;50.744;7.086;2023-07-29T11:42:14;22.20;99.90
15765;DHT22;7983;50.744;7.086;2023-07-29T11:44:40;22.30;99.90
15765;DHT22;7983;50.744;7.086;2023-07-29T11:47:11;22.30;99.90
15765;DHT22;7983;50.744;7.086;2023-07-29T11:49:39;22.40;99.90
15765;DHT22;7983;50.744;7.086;2023-07-29T11:52:09;22.40;99.90
15765;DHT22;7983;50.744;7.086;2023-07-29T11:54:39;22.40;99.90
15765;DHT22;7983;50.744;7.086;2023-07-29T11:57:11;22.40;99.90
15765;DHT22;7983;50.744;7.086;2023-07-29T11:59:38;22.50;99.90
15765;DHT22;7983;50.744;7.086;2023-07-29T12:02:09;22.50;99.90
15765;DHT22;7983;50.744;7.086;2023-07-29T12:04:36;22.60;99.90
15765;DHT22;7983;50.744;7.086;2023-07-29T12:07:03;22.70;99.90
15765;DHT22;7983;50.744;7.086;2023-07-29T12:09:29;22.90;99.90
15765;DHT22;7983;50.744;7.086;2023-07-29T12:12:00;23.10;99.90
15765;DHT22;7983;50.744;7.086;2023-07-29T12:14:29;23.20;99.90
15765;DHT22;7983;50.744;7.086;2023-07-29T12:16:54;23.40;99.90
15765;DHT22;7983;50.744;7.086;2023-07-29T12:19:22;23.70;99.90
15765;DHT22;7983;50.744;7.086;2023-07-29T12:21:48;24.00;99.90
15765;DHT22;7983;50.744;7.086;2023-07-29T12:24:17;24.40;99.90
15765;DHT22;7983;50.744;7.086;2023-07-29T12:26:42;24.70;99.90
15765;DHT22;7983;50.744;7.086;2023-07-29T12:29:19;25.00;99.90
15765;DHT22;7983;50.744;7.086;2023-07-29T12:31:46;25.40;99.90
15765;DHT22;7983;50.744;7.086;2023-07-29T12:34:21;25.70;99.90
15765;DHT22;7983;50.744;7.086;2023-07-29T12:36:50;25.90;99.90
15765;DHT22;7983;50.744;7.086;2023-07-29T12:39:26;26.10;99.90
15765;DHT22;7983;50.744;7.086;2023-07-29T12:41:56;26.20;99.90
15765;DHT22;7983;50.744;7.086;2023-07-29T12:44:29;26.40;99.90
15765;DHT22;7983;50.744;7.086;2023-07-29T12:46:58;26.60;99.90
15765;DHT22;7983;50.744;7.086;2023-07-29T12:49:24;26.80;99.90
15765;DHT22;7983;50.744;7.086;2023-07-29T12:51:52;27.00;99.90
15765;DHT22;7983;50.744;7.086;2023-07-29T12:54:18;27.10;99.90
15765;DHT22;7983;50.744;7.086;2023-07-29T12:56:46;27.30;99.90
15765;DHT22;7983;50.744;7.086;2023-07-29T12:59:14;27.50;99.90
15765;DHT22;7983;50.744;7.086;2023-07-29T13:01:40;27.60;99.90
15765;DHT22;7983;50.744;7.086;2023-07-29T13:04:06;27.80;99.90
15765;DHT22;7983;50.744;7.086;2023-07-29T13:06:31;27.90;99.90
15765;DHT22;7983;50.744;7.086;2023-07-29T13:08:57;28.00;99.90
15765;DHT22;7983;50.744;7.086;2023-07-29T13:11:23;28.10;99.90
15765;DHT22;7983;50.744;7.086;2023-07-29T13:13:49;28.10;99.90
15765;DHT22;7983;50.744;7.086;2023-07-29T13:16:15;28.00;99.90
15765;DHT22;7983;50.744;7.086;2023-07-29T13:18:44;27.90;99.90
15765;DHT22;7983;50.744;7.086;2023-07-29T13:21:10;27.70;99.90
15765;DHT22;7983;50.744;7.086;2023-07-29T13:23:35;27.50;99.90
15765;DHT22;7983;50.744;7.086;2023-07-29T13:26:01;27.30;99.90
15765;DHT22;7983;50.744;7.086;2023-07-29T13:28:29;27.10;99.90
15765;DHT22;7983;50.744;7.086;2023-07-29T13:30:55;26.90;99.90
15765;DHT22;7983;50.744;7.086;2023-07-29T13:33:20;26.70;99.90
15765;DHT22;7983;50.744;7.086;2023-07-29T13:35:46;26.50;99.90
15765;DHT22;7983;50.744;7.086;2023-07-29T13:38:16;26.20;99.90
15765;DHT22;7983;50.744;7.086;2023-07-29T13:40:44;26.00;99.90
15765;DHT22;7983;50.744;7.086;2023-07-29T13:43:10;25.90;99.90
15765;DHT22;7983;50.744;7.086;2023-07-29T13:45:36;25.70;99.90
15765;DHT22;7983;50.744;7.086;2023-07-29T13:48:02;25.50;99.90
15765;DHT22;7983;50.744;7.086;2023-07-29T13:50:27;25.40;99.90
15765;DHT22;7983;50.744;7.086;2023-07-29T13:52:55;25.20;99.90
15765;DHT22;7983;50.744;7.086;2023-07-29T13:55:21;25.10;99.90
15765;DHT22;7983;50.744;7.086;2023-07-29T13:57:49;25.00;99.90
15765;DHT22;7983;50.744;7.086;2023-07-29T14:00:16;24.90;99.90
15765;DHT22;7983;50.744;7.086;2023-07-29T14:02:42;24.90;99.90
15765;DHT22;7983;50.744;7.086;2023-07-29T14:05:09;24.80;99.90
15765;DHT22;7983;50.744;7.086;2023-07-29T14:07:37;24.70;99.90
15765;DHT22;7983;50.744;7.086;2023-07-29T14:10:03;24.60;99.90
15765;DHT22;7983;50.744;7.086;2023-07-29T14:12:31;24.50;99.90
15765;DHT22;7983;50.744;7.086;2023-07-29T14:14:59;24.50;99.90
15765;DHT22;7983;50.744;7.086;2023-07-29T14:17:25;24.40;99.90
15765;DHT22;7983;50.744;7.086;2023-07-29T14:19:55;24.30;99.90
15765;DHT22;7983;50.744;7.086;2023-07-29T14:22:23;24.30;99.90
15765;DHT22;7983;50.744;7.086;2023-07-29T14:24:51;24.20;99.90
15765;DHT22;7983;50.744;7.086;2023-07-29T14:27:17;24.10;99.90
15765;DHT22;7983;50.744;7.086;2023-07-29T14:29:43;24.10;99.90
15765;DHT22;7983;50.744;7.086;2023-07-29T14:32:08;24.10;99.90
15765;DHT22;7983;50.744;7.086;2023-07-29T14:34:34;24.10;99.90
15765;DHT22;7983;50.744;7.086;2023-07-29T14:36:59;24.10;99.90
15765;DHT22;7983;50.744;7.086;2023-07-29T14:39:29;24.00;99.90
15765;DHT22;7983;50.744;7.086;2023-07-29T14:41:55;23.90;99.90
15765;DHT22;7983;50.744;7.086;2023-07-29T14:44:23;23.90;99.90
15765;DHT22;7983;50.744;7.086;2023-07-29T14:46:48;23.70;99.90
15765;DHT22;7983;50.744;7.086;2023-07-29T14:49:14;23.60;99.90
15765;DHT22;7983;50.744;7.086;2023-07-29T14:51:42;23.50;99.90
15765;DHT22;7983;50.744;7.086;2023-07-29T14:54:07;23.40;99.90
15765;DHT22;7983;50.744;7.086;2023-07-29T14:56:33;23.30;99.90
15765;DHT22;7983;50.744;7.086;2023-07-29T14:59:01;23.10;99.90
15765;DHT22;7983;50.744;7.086;2023-07-29T15:01:26;23.00;99.90
15765;DHT22;7983;50.744;7.086;2023-07-29T15:03:52;23.00;99.90
15765;DHT22;7983;50.744;7.086;2023-07-29T15:06:20;22.90;99.90
15765;DHT22;7983;50.744;7.086;2023-07-29T15:08:47;22.80;99.90
15765;DHT22;7983;50.744;7.086;2023-07-29T15:11:15;22.80;99.90
15765;DHT22;7983;50.744;7.086;2023-07-29T15:13:43;22.70;99.90
15765;DHT22;7983;50.744;7.086;2023-07-29T15:16:09;22.70;99.90
15765;DHT22;7983;50.744;7.086;2023-07-29T15:18:34;22.70;99.90
15765;DHT22;7983;50.744;7.086;2023-07-29T15:21:00;22.60;99.90
15765;DHT22;7983;50.744;7.086;2023-07-29T15:23:29;22.60;99.90
15765;DHT22;7983;50.744;7.086;2023-07-29T15:25:55;22.60;99.90
15765;DHT22;7983;50.744;7.086;2023-07-29T15:28:20;22.60;99.90
15765;DHT22;7983;50.744;7.086;2023-07-29T15:30:47;22.70;99.90
15765;DHT22;7983;50.744;7.086;2023-07-29T15:33:13;22.70;99.90
15765;DHT22;7983;50.744;7.086;2023-07-29T15:35:39;22.70;99.90
15765;DHT22;7983;50.744;7.086;2023-07-29T15:38:09;22.70;99.90
15765;DHT22;7983;50.744;7.086;2023-07-29T15:40:38;22.70;99.90
15765;DHT22;7983;50.744;7.086;2023-07-29T15:43:03;22.70;99.90
15765;DHT22;7983;50.744;7.086;2023-07-29T15:45:31;22.70;99.90
15765;DHT22;7983;50.744;7.086;2023-07-29T15:47:57;22.70;99.90
15765;DHT22;7983;50.744;7.086;2023-07-29T15:50:22;22.60;99.90
15765;DHT22;7983;50.744;7.086;2023-07-29T15:52:48;22.60;99.90
15765;DHT22;7983;50.744;7.086;2023-07-29T15:55:13;22.60;99.90
15765;DHT22;7983;50.744;7.086;2023-07-29T15:57:39;22.50;99.90
15765;DHT22;7983;50.744;7.086;2023-07-29T16:00:05;22.50;99.90
15765;DHT22;7983;50.744;7.086;2023-07-29T16:02:36;22.30;99.90
15765;DHT22;7983;50.744;7.086;2023-07-29T16:05:01;22.20;99.90
15765;DHT22;7983;50.744;7.086;2023-07-29T16:07:27;22.10;99.90
15765;DHT22;7983;50.744;7.086;2023-07-29T16:09:55;22.00;99.90